Terminal Aerodrome Forecast
Issued by NWS

Current Version | Previous Version | Graphics & Text | Print | Product List | Glossary On
Versions: 1 2 3 4 5 6 7 8 9 10 11 12 13 14 15 16
039
FTUS41 KPBZ 170525
TAFMGW
TAF
KMGW 170525Z 1706/1806 00000KT P6SM SKC
     FM171500 23005KT P6SM SKC=

USA.gov is the U.S. government's official web portal to all federal, state and local government web resources and services.